Time;durP1;ratioP1;P1;durP2;ratioP2;P2;SDS_P1;SDS_P2;PMS_P1;PMS_P2;Temp;Humidity;BMP_temperature;BMP_pressure;BME280_temperature;BME280_humidity;BME280_pressure;Samples;Min_cycle;Max_cycle;Signal;HPM_P1;HPM_P2
2021/08/25 00:01:34;;;;;;;6.80;2.80;;;14.70;80.50;;;;;;5035855;28;20438;-65
2021/08/25 00:03:59;;;;;;;6.88;3.15;;;14.60;80.70;;;;;;5043392;28;20035;-65
2021/08/25 00:06:25;;;;;;;6.85;2.38;;;14.70;79.90;;;;;;5031501;28;20053;-66
2021/08/25 00:08:51;;;;;;;8.95;2.85;;;14.80;80.10;;;;;;5026838;28;20494;-65
2021/08/25 00:11:17;;;;;;;7.15;2.90;;;14.70;79.90;;;;;;5027221;28;20037;-67
2021/08/25 00:13:43;;;;;;;7.38;2.97;;;14.70;80.60;;;;;;5025612;28;20574;-67
2021/08/25 00:16:08;;;;;;;6.78;2.90;;;14.50;81.60;;;;;;5041574;28;20104;-65
2021/08/25 00:18:34;;;;;;;6.43;2.67;;;14.50;81.90;;;;;;5027265;28;20388;-67
2021/08/25 00:20:59;;;;;;;6.28;2.70;;;14.50;81.60;;;;;;5027180;28;20029;-66
2021/08/25 00:23:25;;;;;;;7.03;2.90;;;14.50;81.70;;;;;;5026798;28;20113;-67
2021/08/25 00:25:54;;;;;;;7.75;2.80;;;14.50;81.40;;;;;;5044727;28;20028;-65
2021/08/25 00:28:20;;;;;;;5.97;2.30;;;14.60;81.50;;;;;;5046615;28;20024;-65
2021/08/25 00:30:45;;;;;;;6.13;2.55;;;14.60;80.90;;;;;;5039659;28;20124;-65
2021/08/25 00:33:11;;;;;;;7.18;3.25;;;14.60;81.10;;;;;;5028385;28;20514;-63
2021/08/25 00:35:37;;;;;;;7.10;2.80;;;14.50;81.50;;;;;;5036024;28;20026;-62
2021/08/25 00:38:03;;;;;;;7.00;2.72;;;14.50;81.40;;;;;;5026387;28;20040;-64
2021/08/25 00:40:28;;;;;;;6.63;2.78;;;14.50;81.70;;;;;;5026084;28;20037;-65
2021/08/25 00:42:54;;;;;;;8.35;3.10;;;14.50;81.40;;;;;;5036293;28;20072;-64
2021/08/25 00:45:19;;;;;;;7.55;2.80;;;14.60;81.60;;;;;;5033744;28;20029;-64
2021/08/25 00:47:45;;;;;;;8.65;3.08;;;14.60;81.20;;;;;;5036965;28;20018;-62
2021/08/25 00:50:15;;;;;;;7.40;2.78;;;14.60;81.50;;;;;;5024637;28;20032;-63
2021/08/25 00:52:42;;;;;;;9.63;3.15;;;14.50;81.30;;;;;;5027391;28;20040;-65
2021/08/25 00:55:11;;;;;;;6.88;2.60;;;14.40;82.00;;;;;;5027300;28;20128;-63
2021/08/25 00:57:37;;;;;;;7.60;2.80;;;14.20;83.10;;;;;;5043998;28;20154;-63
2021/08/25 01:00:07;;;;;;;5.95;2.58;;;14.20;83.10;;;;;;5025691;28;22302;-65
2021/08/25 01:02:44;;;;;;;8.07;2.80;;;14.20;83.30;;;;;;5025701;28;20029;-65
2021/08/25 01:05:10;;;;;;;7.63;3.10;;;14.10;83.10;;;;;;5039676;28;20028;-65
2021/08/25 01:07:39;;;;;;;8.23;2.58;;;14.20;83.00;;;;;;5025845;28;20029;-66
2021/08/25 01:10:41;;;;;;;7.38;3.08;;;14.20;83.90;;;;;;5034057;28;20035;-65
2021/08/25 01:13:09;;;;;;;6.93;2.97;;;14.10;83.90;;;;;;5027555;28;20040;-64
2021/08/25 01:15:42;;;;;;;5.90;2.40;;;14.10;84.00;;;;;;5030419;28;20076;-66
2021/08/25 01:18:16;;;;;;;6.65;3.10;;;14.20;83.70;;;;;;5030557;28;20026;-65
2021/08/25 01:20:46;;;;;;;7.43;2.35;;;14.40;82.90;;;;;;5037013;28;20033;-65
2021/08/25 01:23:13;;;;;;;7.22;3.08;;;14.50;82.20;;;;;;5032796;28;20029;-64
2021/08/25 01:25:39;;;;;;;7.40;2.60;;;14.40;81.70;;;;;;5040096;28;20365;-65
2021/08/25 01:28:07;;;;;;;7.13;2.60;;;14.30;82.00;;;;;;5032861;28;20112;-65
2021/08/25 01:30:37;;;;;;;6.68;2.72;;;14.40;83.40;;;;;;5043658;28;20414;-65
2021/08/25 01:33:03;;;;;;;4.80;2.03;;;14.60;84.00;;;;;;5045279;28;20057;-65
2021/08/25 01:35:41;;;;;;;7.05;2.30;;;15.20;91.20;;;;;;5035464;28;20331;-64
2021/08/25 01:38:08;;;;;;;7.25;2.78;;;15.30;85.80;;;;;;5038436;28;20025;-64
2021/08/25 01:40:37;;;;;;;6.53;2.15;;;15.80;80.60;;;;;;5043331;28;20087;-64
2021/08/25 01:43:06;;;;;;;6.93;2.92;;;15.90;90.00;;;;;;5044894;28;20031;-65
2021/08/25 01:45:33;;;;;;;8.05;3.15;;;15.50;76.90;;;;;;5044779;28;20025;-66
2021/08/25 01:47:58;;;;;;;7.35;2.70;;;15.10;79.10;;;;;;5045367;28;20028;-64
2021/08/25 01:50:24;;;;;;;6.15;2.35;;;14.90;80.20;;;;;;5043718;28;20029;-66
2021/08/25 01:52:49;;;;;;;7.40;2.65;;;14.90;81.00;;;;;;5045037;28;20083;-65
2021/08/25 01:55:15;;;;;;;6.95;2.53;;;14.90;81.00;;;;;;5044865;28;20091;-65
2021/08/25 01:57:41;;;;;;;6.03;2.03;;;14.80;80.80;;;;;;5045132;28;20867;-64
2021/08/25 02:00:07;;;;;;;6.47;2.40;;;14.80;84.60;;;;;;5044406;28;20025;-66
2021/08/25 02:02:32;;;;;;;7.05;2.85;;;14.80;81.20;;;;;;5035968;28;20039;-65
2021/08/25 02:04:58;;;;;;;7.80;2.88;;;14.70;81.10;;;;;;5037504;28;20096;-65
2021/08/25 02:07:24;;;;;;;7.43;3.10;;;14.70;81.00;;;;;;5043718;28;20029;-63
2021/08/25 02:09:49;;;;;;;6.88;2.53;;;14.70;80.60;;;;;;5045091;28;20079;-64
2021/08/25 02:12:15;;;;;;;5.65;1.83;;;14.70;81.60;;;;;;5044732;28;20207;-64
2021/08/25 02:14:40;;;;;;;6.80;2.67;;;14.90;90.30;;;;;;5043292;28;20029;-63
2021/08/25 02:17:06;;;;;;;6.05;2.60;;;14.80;80.90;;;;;;5045044;28;20036;-64
2021/08/25 02:19:33;;;;;;;6.72;3.10;;;14.80;81.90;;;;;;5043600;28;20021;-65
2021/08/25 02:21:58;;;;;;;6.35;2.92;;;14.70;81.50;;;;;;5044517;28;20029;-65
2021/08/25 02:24:24;;;;;;;7.30;3.00;;;14.90;81.80;;;;;;5043187;28;20094;-65
2021/08/25 02:26:49;;;;;;;6.38;2.70;;;14.80;80.90;;;;;;5044416;28;20100;-62
2021/08/25 02:29:15;;;;;;;7.13;3.25;;;14.70;81.10;;;;;;5044726;28;20509;-64
2021/08/25 02:31:41;;;;;;;6.82;2.78;;;14.70;80.60;;;;;;5042944;28;20517;-67
2021/08/25 02:34:06;;;;;;;6.72;2.88;;;14.50;81.70;;;;;;5043071;28;20029;-65
2021/08/25 02:36:32;;;;;;;7.05;2.80;;;14.40;82.70;;;;;;5044690;28;20032;-65
2021/08/25 02:38:57;;;;;;;8.15;2.70;;;14.40;82.20;;;;;;5044517;28;20060;-65
2021/08/25 02:41:23;;;;;;;6.35;2.83;;;14.30;83.30;;;;;;5044694;28;20040;-64
2021/08/25 02:43:48;;;;;;;7.80;2.95;;;14.40;83.20;;;;;;5043555;28;20079;-65
2021/08/25 02:46:14;;;;;;;7.55;2.55;;;14.40;82.30;;;;;;5043437;28;20037;-64
2021/08/25 02:48:41;;;;;;;7.90;2.70;;;14.40;82.50;;;;;;5047239;28;20399;-65
2021/08/25 02:51:06;;;;;;;7.05;2.83;;;14.30;82.80;;;;;;5046704;28;20055;-64
2021/08/25 02:53:32;;;;;;;7.13;3.33;;;14.30;83.00;;;;;;5048399;28;20032;-64
2021/08/25 02:55:57;;;;;;;6.40;2.95;;;14.30;82.80;;;;;;5046894;28;20025;-63
2021/08/25 02:58:23;;;;;;;7.03;3.00;;;14.40;82.20;;;;;;5048148;28;20110;-65
2021/08/25 03:00:48;;;;;;;7.22;2.80;;;14.30;82.10;;;;;;5045326;28;20033;-63
2021/08/25 03:03:14;;;;;;;7.20;3.20;;;14.20;82.30;;;;;;5047836;28;20060;-66
2021/08/25 03:05:40;;;;;;;6.55;2.92;;;14.30;83.00;;;;;;5046727;28;20498;-65
2021/08/25 03:08:05;;;;;;;6.85;2.90;;;14.30;83.00;;;;;;5048023;28;20082;-67
2021/08/25 03:10:31;;;;;;;7.13;3.10;;;14.40;82.70;;;;;;5046187;28;20033;-67
2021/08/25 03:12:56;;;;;;;7.97;2.83;;;14.30;82.60;;;;;;5046472;28;20446;-65
2021/08/25 03:15:22;;;;;;;6.57;2.90;;;14.20;82.20;;;;;;5048043;28;20029;-64
2021/08/25 03:17:47;;;;;;;8.70;3.05;;;14.20;82.90;;;;;;5046523;28;20402;-66
2021/08/25 03:20:13;;;;;;;6.10;2.55;;;14.30;83.00;;;;;;5047663;28;20072;-64
2021/08/25 03:22:39;;;;;;;7.65;3.15;;;14.30;82.70;;;;;;5047776;28;20441;-66
2021/08/25 03:25:08;;;;;;;7.00;2.90;;;14.20;82.60;;;;;;5046300;28;20060;-66
2021/08/25 03:27:34;;;;;;;7.75;3.05;;;14.10;83.00;;;;;;5047841;28;20036;-65
2021/08/25 03:30:00;;;;;;;6.88;3.15;;;14.10;83.40;;;;;;5047253;28;20025;-65
2021/08/25 03:32:25;;;;;;;8.85;3.55;;;14.00;83.40;;;;;;5047349;28;20016;-67
2021/08/25 03:34:51;;;;;;;6.22;2.67;;;13.90;83.90;;;;;;5045974;28;20479;-64
2021/08/25 03:37:17;;;;;;;8.65;3.15;;;13.80;84.40;;;;;;5047718;28;20029;-64
2021/08/25 03:39:42;;;;;;;7.18;2.97;;;13.80;85.20;;;;;;5046310;28;20025;-64
2021/08/25 03:42:09;;;;;;;6.03;2.67;;;13.80;84.80;;;;;;5045471;28;20029;-64
2021/08/25 03:44:39;;;;;;;7.00;3.00;;;14.00;85.20;;;;;;5047009;28;20021;-65
2021/08/25 03:47:05;;;;;;;5.70;2.25;;;14.10;84.40;;;;;;5045528;28;20152;-65
2021/08/25 03:49:32;;;;;;;6.07;2.53;;;14.40;89.40;;;;;;5046212;28;20559;-65
2021/08/25 03:51:58;;;;;;;5.80;2.42;;;14.40;83.40;;;;;;5046725;28;20035;-64
2021/08/25 03:54:24;;;;;;;6.78;3.15;;;14.60;83.10;;;;;;5045748;28;20029;-64
2021/08/25 03:56:49;;;;;;;6.85;2.25;;;14.50;82.70;;;;;;5046762;28;20029;-65
2021/08/25 03:59:15;;;;;;;7.95;2.65;;;14.50;83.70;;;;;;5045464;28;20021;-63
2021/08/25 04:01:41;;;;;;;6.07;2.42;;;15.20;93.30;;;;;;5044919;28;20061;-63
2021/08/25 04:04:08;;;;;;;7.22;3.00;;;16.00;88.50;;;;;;5042943;28;20024;-64
2021/08/25 04:06:35;;;;;;;6.63;2.63;;;15.90;77.00;;;;;;5044873;28;20025;-65
2021/08/25 04:09:01;;;;;;;7.28;3.30;;;15.10;78.70;;;;;;5046752;28;20820;-65
2021/08/25 04:11:27;;;;;;;7.53;3.58;;;14.80;80.90;;;;;;5046092;28;20037;-67
2021/08/25 04:13:53;;;;;;;6.55;3.03;;;14.60;81.40;;;;;;5046903;28;20128;-65
2021/08/25 04:16:18;;;;;;;10.50;3.72;;;14.40;82.70;;;;;;5043974;28;20108;-66
2021/08/25 04:18:44;;;;;;;12.43;4.43;;;14.40;82.70;;;;;;5035862;28;20107;-65
2021/08/25 04:21:10;;;;;;;7.82;3.13;;;14.10;82.90;;;;;;5044431;28;20045;-64
2021/08/25 04:23:36;;;;;;;8.18;3.78;;;13.90;84.80;;;;;;5046870;28;20017;-66
2021/08/25 04:26:02;;;;;;;7.65;3.83;;;13.80;86.00;;;;;;5046526;28;20037;-67
2021/08/25 04:28:27;;;;;;;8.52;4.10;;;13.70;86.40;;;;;;5041114;28;20483;-65
2021/08/25 04:30:53;;;;;;;7.65;3.60;;;13.60;86.20;;;;;;5029123;28;20037;-64
2021/08/25 04:33:18;;;;;;;8.35;3.70;;;13.50;86.90;;;;;;5037257;28;20051;-66
2021/08/25 04:35:44;;;;;;;10.10;3.58;;;13.60;86.50;;;;;;5033322;28;20033;-65
2021/08/25 04:38:09;;;;;;;7.82;3.55;;;13.60;83.80;;;;;;5028719;28;20044;-64
2021/08/25 04:40:35;;;;;;;7.10;3.63;;;13.30;85.10;;;;;;5027040;28;20041;-65
2021/08/25 04:43:00;;;;;;;7.22;3.47;;;13.30;86.60;;;;;;5044476;28;20029;-66
2021/08/25 04:45:26;;;;;;;7.68;3.92;;;13.50;85.80;;;;;;5045115;28;20025;-67
2021/08/25 04:47:52;;;;;;;7.20;3.63;;;13.50;86.60;;;;;;5053834;28;20033;-67
2021/08/25 04:50:17;;;;;;;9.18;3.95;;;13.50;87.70;;;;;;5036874;28;20973;-65
2021/08/25 04:52:43;;;;;;;8.38;3.90;;;13.30;85.80;;;;;;5024906;28;20459;-66
2021/08/25 04:55:09;;;;;;;8.23;3.38;;;13.20;86.90;;;;;;5024731;28;20514;-67
2021/08/25 04:57:34;;;;;;;9.52;4.13;;;13.30;87.10;;;;;;5032657;28;20119;-68
2021/08/25 05:00:00;;;;;;;7.88;3.88;;;13.40;88.70;;;;;;5037316;28;20040;-65
2021/08/25 05:02:26;;;;;;;6.35;2.58;;;13.60;88.30;;;;;;5034189;28;20033;-66
2021/08/25 05:04:51;;;;;;;6.25;2.20;;;14.40;95.90;;;;;;5042709;28;20041;-65
2021/08/25 05:07:17;;;;;;;6.43;2.38;;;15.90;93.70;;;;;;5039528;28;20032;-64
2021/08/25 05:09:42;;;;;;;10.00;2.53;;;16.80;90.80;;;;;;5037086;28;20025;-65
2021/08/25 05:12:08;;;;;;;6.28;2.70;;;17.20;88.20;;;;;;5029182;28;20029;-65
2021/08/25 05:14:35;;;;;;;10.68;3.58;;;17.70;85.20;;;;;;5034403;28;20116;-65
2021/08/25 05:17:03;;;;;;;8.10;3.33;;;17.50;74.70;;;;;;5041263;28;20044;-65
2021/08/25 05:19:29;;;;;;;10.43;3.58;;;17.10;73.40;;;;;;5030113;28;20033;-65
2021/08/25 05:21:54;;;;;;;9.88;3.70;;;16.80;76.20;;;;;;5022765;28;20684;-66
2021/08/25 05:24:20;;;;;;;9.63;3.75;;;17.10;78.50;;;;;;5027065;28;20112;-67
2021/08/25 05:26:46;;;;;;;11.15;2.75;;;17.30;77.60;;;;;;5043455;28;20667;-67
2021/08/25 05:29:12;;;;;;;8.82;2.80;;;17.70;84.60;;;;;;5045694;28;20029;-69
2021/08/25 05:31:38;;;;;;;13.23;3.45;;;18.40;80.80;;;;;;5045509;28;20017;-67
2021/08/25 05:34:03;;;;;;;8.98;3.40;;;18.80;76.80;;;;;;5045491;28;20017;-67
2021/08/25 05:36:29;;;;;;;7.40;2.80;;;19.10;75.20;;;;;;5045626;28;20056;-66
2021/08/25 05:38:54;;;;;;;8.65;2.47;;;19.20;73.80;;;;;;5044599;28;20028;-65
2021/08/25 05:41:20;;;;;;;8.52;3.10;;;19.20;74.20;;;;;;5045065;28;20531;-65
2021/08/25 05:43:45;;;;;;;7.20;2.45;;;19.20;68.60;;;;;;5039655;28;20036;-65
2021/08/25 05:46:11;;;;;;;7.55;3.50;;;19.20;75.60;;;;;;5043733;28;20029;-64
2021/08/25 05:48:36;;;;;;;6.90;2.67;;;19.30;68.70;;;;;;5044262;28;20025;-64
2021/08/25 05:51:02;;;;;;;8.68;2.80;;;19.30;74.50;;;;;;5041273;28;20267;-65
2021/08/25 05:53:27;;;;;;;9.07;3.00;;;19.50;73.80;;;;;;5027564;28;20073;-68
2021/08/25 05:55:53;;;;;;;8.75;2.70;;;19.70;71.60;;;;;;5022646;28;20112;-65
2021/08/25 05:58:18;;;;;;;10.50;2.63;;;19.80;72.80;;;;;;5032560;28;20033;-65
2021/08/25 06:00:44;;;;;;;7.35;2.63;;;19.90;71.80;;;;;;5043349;28;20032;-65
2021/08/25 06:03:09;;;;;;;6.50;2.15;;;19.90;72.10;;;;;;5044147;28;20482;-65
2021/08/25 06:05:36;;;;;;;6.93;2.60;;;20.10;71.50;;;;;;5045282;28;20029;-67
2021/08/25 06:08:01;;;;;;;6.47;2.50;;;20.10;70.10;;;;;;5045449;28;20109;-65
2021/08/25 06:10:27;;;;;;;5.13;2.30;;;20.10;69.30;;;;;;5035548;28;20128;-66
2021/08/25 06:12:52;;;;;;;7.80;2.58;;;20.20;70.40;;;;;;5024379;28;20029;-67
2021/08/25 06:15:18;;;;;;;8.27;2.47;;;20.30;70.30;;;;;;5023836;28;20176;-66
2021/08/25 06:17:44;;;;;;;7.80;3.08;;;20.40;69.60;;;;;;5024730;28;20108;-65
2021/08/25 06:20:11;;;;;;;7.45;2.33;;;20.30;68.40;;;;;;5025001;28;20035;-65
2021/08/25 06:22:36;;;;;;;6.80;2.50;;;20.30;70.10;;;;;;5025389;28;20049;-67
2021/08/25 06:25:02;;;;;;;7.68;2.70;;;20.40;69.70;;;;;;5029429;28;20026;-63
2021/08/25 06:27:27;;;;;;;5.95;2.17;;;20.40;69.60;;;;;;5036808;28;20025;-65
2021/08/25 06:29:53;;;;;;;6.82;2.22;;;20.40;69.40;;;;;;5027272;28;20558;-65
2021/08/25 06:32:19;;;;;;;6.03;2.20;;;20.50;69.10;;;;;;5028517;28;20032;-64
2021/08/25 06:34:44;;;;;;;7.88;2.63;;;20.60;68.40;;;;;;5027102;28;20033;-65
2021/08/25 06:37:10;;;;;;;7.72;3.15;;;20.70;67.90;;;;;;5026795;28;20384;-65
2021/08/25 06:39:35;;;;;;;5.78;2.63;;;20.70;66.10;;;;;;5026538;28;20048;-63
2021/08/25 06:42:01;;;;;;;6.68;3.10;;;20.80;67.30;;;;;;5026932;28;20116;-65
2021/08/25 06:44:26;;;;;;;6.82;2.45;;;20.90;64.80;;;;;;5027247;28;20398;-65
2021/08/25 06:46:52;;;;;;;7.13;2.83;;;20.90;66.20;;;;;;5027013;28;20112;-67
2021/08/25 06:49:18;;;;;;;6.93;2.55;;;21.00;66.30;;;;;;5026844;28;20061;-64
2021/08/25 06:51:44;;;;;;;5.40;2.00;;;21.00;66.20;;;;;;5026763;28;20033;-65
2021/08/25 06:54:09;;;;;;;5.85;2.50;;;21.00;66.20;;;;;;5026656;28;20141;-65
2021/08/25 06:56:35;;;;;;;5.45;2.30;;;21.00;66.20;;;;;;5026983;28;20025;-64
2021/08/25 06:59:01;;;;;;;6.38;2.60;;;20.80;66.50;;;;;;5026697;28;20029;-67
2021/08/25 07:01:26;;;;;;;6.93;2.70;;;20.70;66.80;;;;;;5026346;28;20539;-64
2021/08/25 07:03:52;;;;;;;6.07;2.60;;;20.70;66.60;;;;;;5026523;28;20505;-66
2021/08/25 07:06:19;;;;;;;7.00;2.50;;;20.90;66.50;;;;;;5026740;28;20030;-65
2021/08/25 07:08:45;;;;;;;5.72;2.30;;;20.90;66.20;;;;;;5026564;28;20120;-64
2021/08/25 07:11:11;;;;;;;6.15;2.80;;;20.90;66.20;;;;;;5026219;28;20436;-64
2021/08/25 07:13:37;;;;;;;5.85;2.35;;;20.80;66.40;;;;;;5026546;28;20582;-64
2021/08/25 07:16:03;;;;;;;7.72;3.63;;;20.80;66.50;;;;;;5026337;28;20034;-66
2021/08/25 07:18:29;;;;;;;6.03;2.95;;;20.70;63.40;;;;;;5026548;28;20120;-65
2021/08/25 07:20:54;;;;;;;5.00;2.47;;;20.80;65.70;;;;;;5026037;28;20032;-64
2021/08/25 07:23:20;;;;;;;5.05;2.30;;;20.80;66.60;;;;;;5026355;28;20040;-65
2021/08/25 07:25:45;;;;;;;4.95;2.10;;;20.80;67.10;;;;;;5026214;28;20255;-65
2021/08/25 07:28:11;;;;;;;5.95;2.45;;;20.80;67.10;;;;;;5026341;28;20091;-64
2021/08/25 07:30:37;;;;;;;7.28;2.28;;;20.60;67.70;;;;;;5025577;28;20044;-63
2021/08/25 07:33:03;;;;;;;6.43;2.67;;;20.60;67.90;;;;;;5026132;28;20076;-65
2021/08/25 07:35:30;;;;;;;7.15;2.67;;;20.60;68.10;;;;;;5026044;28;20116;-66
2021/08/25 07:37:58;;;;;;;6.32;2.50;;;20.60;67.90;;;;;;5026112;28;20537;-66
2021/08/25 07:40:24;;;;;;;5.03;2.22;;;20.60;67.90;;;;;;5025790;28;20033;-65
2021/08/25 07:42:50;;;;;;;5.97;2.50;;;20.60;68.10;;;;;;5025924;28;20029;-64
2021/08/25 07:45:16;;;;;;;4.65;2.00;;;20.60;67.90;;;;;;5026007;28;20557;-65
2021/08/25 07:47:44;;;;;;;5.72;2.30;;;20.60;68.00;;;;;;5025713;28;20518;-65
2021/08/25 07:50:09;;;;;;;5.57;2.42;;;20.60;67.80;;;;;;5025751;28;20025;-68
2021/08/25 07:52:35;;;;;;;9.88;2.30;;;20.60;67.60;;;;;;5025785;28;20439;-65
2021/08/25 07:55:00;;;;;;;6.68;2.80;;;20.70;67.60;;;;;;5025832;28;20056;-67
2021/08/25 07:57:26;;;;;;;6.03;2.20;;;20.70;67.70;;;;;;5026023;28;20117;-65
2021/08/25 07:59:51;;;;;;;5.88;2.85;;;20.70;68.00;;;;;;5025592;28;20502;-67
2021/08/25 08:02:17;;;;;;;5.18;2.05;;;20.60;68.10;;;;;;5025751;28;20502;-65
2021/08/25 08:04:43;;;;;;;5.25;1.98;;;20.60;68.00;;;;;;5025656;28;20095;-64
2021/08/25 08:07:08;;;;;;;5.95;2.40;;;20.60;68.30;;;;;;5025434;28;20095;-66
2021/08/25 08:09:34;;;;;;;4.97;1.95;;;20.50;68.30;;;;;;5025604;28;20100;-66
2021/08/25 08:11:59;;;;;;;7.03;2.58;;;20.50;68.30;;;;;;5025093;28;20568;-66
2021/08/25 08:14:26;;;;;;;4.75;1.90;;;20.50;68.10;;;;;;5025622;28;20029;-65
2021/08/25 08:16:55;;;;;;;5.75;2.28;;;20.60;67.90;;;;;;5025561;28;20295;-65
2021/08/25 08:19:28;;;;;;;5.53;2.20;;;20.60;67.90;;;;;;5025329;28;20474;-66
2021/08/25 08:21:54;;;;;;;4.95;2.03;;;20.50;68.10;;;;;;5025077;28;20394;-64
2021/08/25 08:24:20;;;;;;;6.05;2.45;;;20.60;68.20;;;;;;5024966;28;20025;-64
2021/08/25 08:26:46;;;;;;;5.07;2.10;;;20.50;68.30;;;;;;5025111;28;20509;-67
2021/08/25 08:29:12;;;;;;;4.53;1.90;;;20.50;68.40;;;;;;5024973;28;20022;-65
2021/08/25 08:31:38;;;;;;;6.47;2.42;;;20.50;68.30;;;;;;5024901;28;20517;-66
2021/08/25 08:34:03;;;;;;;5.25;2.00;;;20.50;68.30;;;;;;5024780;28;20037;-65
2021/08/25 08:36:29;;;;;;;6.13;2.53;;;20.80;67.70;;;;;;5025320;28;20029;-66
2021/08/25 08:38:54;;;;;;;5.57;2.40;;;20.90;67.10;;;;;;5026274;28;20022;-65
2021/08/25 08:41:20;;;;;;;6.13;2.20;;;21.00;66.80;;;;;;5024565;28;20572;-66
2021/08/25 08:43:50;;;;;;;5.38;2.15;;;21.10;66.70;;;;;;5024628;28;20022;-64
2021/08/25 08:46:17;;;;;;;5.35;2.35;;;21.10;66.30;;;;;;5025737;28;20108;-65
2021/08/25 08:48:43;;;;;;;5.40;2.15;;;21.30;66.20;;;;;;5024956;28;20389;-66
2021/08/25 08:51:10;;;;;;;8.05;2.42;;;21.40;65.60;;;;;;5024595;28;20044;-66
2021/08/25 08:53:36;;;;;;;4.88;2.10;;;21.40;65.30;;;;;;5024444;28;20116;-64
2021/08/25 08:56:02;;;;;;;4.88;1.98;;;21.50;65.10;;;;;;5024716;28;20116;-64
2021/08/25 08:58:28;;;;;;;5.53;2.58;;;21.30;65.30;;;;;;5024476;28;20029;-65
2021/08/25 09:00:53;;;;;;;6.05;2.30;;;21.10;66.00;;;;;;5024412;28;20033;-66
2021/08/25 09:03:26;;;;;;;5.78;2.00;;;21.20;66.00;;;;;;5024269;28;20048;-64
2021/08/25 09:05:59;;;;;;;5.32;2.20;;;21.10;65.20;;;;;;5025803;28;20422;-65
2021/08/25 09:08:30;;;;;;;4.22;1.58;;;21.20;64.90;;;;;;5024714;28;20429;-65
2021/08/25 09:11:16;;;;;;;5.57;1.98;;;21.10;64.90;;;;;;5024353;28;20037;-64
2021/08/25 09:13:48;;;;;;;4.95;2.10;;;21.10;64.90;;;;;;5023144;28;20037;-65
2021/08/25 09:16:24;;;;;;;5.22;2.25;;;21.10;64.60;;;;;;5023117;28;20507;-65
2021/08/25 09:19:01;;;;;;;5.65;2.22;;;21.10;64.60;;;;;;5022886;28;20033;-64
2021/08/25 09:21:35;;;;;;;5.82;2.20;;;21.10;64.60;;;;;;5023871;28;20252;-64
2021/08/25 09:24:01;;;;;;;6.55;2.40;;;21.10;64.20;;;;;;5024014;28;20036;-65
2021/08/25 09:26:27;;;;;;;5.70;2.20;;;21.10;63.90;;;;;;5023879;28;20558;-65
2021/08/25 09:28:53;;;;;;;5.25;2.05;;;21.10;63.50;;;;;;5022397;28;20590;-66
2021/08/25 09:31:19;;;;;;;4.10;1.80;;;21.40;62.70;;;;;;5021865;28;20415;-67
2021/08/25 09:33:47;;;;;;;5.20;2.03;;;21.30;63.80;;;;;;5022170;28;20518;-65
2021/08/25 09:36:15;;;;;;;6.68;2.00;;;21.20;63.80;;;;;;5021993;28;20025;-66
2021/08/25 09:38:54;;;;;;;4.57;2.08;;;21.20;63.30;;;;;;5022005;28;20037;-68
2021/08/25 09:41:20;;;;;;;6.25;2.70;;;21.20;63.00;;;;;;5022062;28;20892;-64
2021/08/25 09:43:48;;;;;;;5.22;2.17;;;21.20;63.00;;;;;;5023872;28;20029;-65
2021/08/25 09:46:24;;;;;;;5.55;2.25;;;21.20;62.90;;;;;;5023600;28;20031;-65
2021/08/25 09:48:50;;;;;;;5.00;2.15;;;21.10;62.50;;;;;;5023949;28;20521;-65
2021/08/25 09:51:37;;;;;;;4.13;1.90;;;21.00;62.60;;;;;;5023437;28;20034;-66
2021/08/25 09:54:10;;;;;;;5.55;2.10;;;21.10;62.20;;;;;;5023556;28;20029;-64
2021/08/25 09:56:38;;;;;;;6.15;2.60;;;21.00;62.40;;;;;;5023182;28;20095;-65
2021/08/25 09:59:06;;;;;;;5.78;1.98;;;21.00;62.00;;;;;;5023346;28;20033;-64
2021/08/25 10:01:33;;;;;;;5.13;2.10;;;21.20;61.90;;;;;;5023451;28;20044;-63
2021/08/25 10:03:58;;;;;;;5.30;2.17;;;21.00;62.40;;;;;;5023671;28;20025;-66
2021/08/25 10:06:25;;;;;;;6.00;2.53;;;21.10;62.10;;;;;;5023573;28;20079;-63
2021/08/25 10:08:52;;;;;;;5.75;2.28;;;21.10;62.20;;;;;;5023612;28;20082;-65
2021/08/25 10:11:23;;;;;;;5.20;2.20;;;21.00;62.70;;;;;;5023116;28;20037;-64
2021/08/25 10:13:48;;;;;;;5.97;2.28;;;21.00;62.00;;;;;;5023538;28;20098;-65
2021/08/25 10:16:36;;;;;;;6.85;2.45;;;21.00;62.30;;;;;;5023526;28;20601;-65
2021/08/25 10:19:26;;;;;;;6.05;2.53;;;21.10;62.30;;;;;;5023830;28;20061;-65
2021/08/25 10:22:19;;;;;;;6.10;2.15;;;21.10;62.10;;;;;;5023171;28;20410;-65
2021/08/25 10:24:54;;;;;;;4.75;2.38;;;21.00;62.30;;;;;;5022153;28;20120;-66
2021/08/25 10:27:21;;;;;;;5.22;2.17;;;21.00;62.00;;;;;;5023547;28;20026;-66
2021/08/25 10:30:08;;;;;;;5.93;2.30;;;21.00;61.70;;;;;;5023391;28;20029;-65
2021/08/25 10:32:39;;;;;;;6.55;2.38;;;20.80;61.20;;;;;;5023186;28;20034;-65
2021/08/25 10:35:17;;;;;;;5.30;2.30;;;21.00;61.20;;;;;;5023177;28;20053;-66
2021/08/25 10:37:43;;;;;;;5.85;2.40;;;21.00;61.30;;;;;;5023110;28;20032;-66
2021/08/25 10:40:09;;;;;;;6.97;2.80;;;21.00;61.00;;;;;;5022896;28;20063;-66
2021/08/25 10:42:52;;;;;;;4.13;1.92;;;20.90;61.60;;;;;;5023074;28;20076;-64
2021/08/25 10:45:38;;;;;;;6.32;2.47;;;20.90;62.00;;;;;;5023478;28;20450;-65
2021/08/25 10:48:08;;;;;;;6.13;2.50;;;21.00;61.40;;;;;;5022941;28;20029;-64
2021/08/25 10:50:55;;;;;;;4.90;2.25;;;21.00;61.30;;;;;;5022686;28;20036;-63
2021/08/25 10:53:33;;;;;;;5.85;2.00;;;20.90;61.80;;;;;;5022940;28;20030;-65
2021/08/25 10:56:07;;;;;;;6.32;2.42;;;21.00;62.30;;;;;;5023415;28;20577;-65
2021/08/25 10:58:51;;;;;;;5.68;2.30;;;21.00;61.10;;;;;;5024406;28;20029;-65
2021/08/25 11:01:23;;;;;;;6.38;2.47;;;20.90;60.70;;;;;;5022994;28;20095;-64
2021/08/25 11:03:49;;;;;;;6.07;2.38;;;20.90;60.80;;;;;;5023172;28;20491;-64
2021/08/25 11:06:35;;;;;;;6.38;2.53;;;20.80;60.60;;;;;;5022939;28;20033;-65
2021/08/25 11:09:27;;;;;;;6.20;2.70;;;20.80;60.50;;;;;;5024578;28;20083;-64
2021/08/25 11:11:53;;;;;;;5.32;2.47;;;20.80;60.30;;;;;;5026134;28;20037;-66
2021/08/25 11:14:20;;;;;;;6.10;2.35;;;20.90;60.00;;;;;;5026509;28;20029;-64
2021/08/25 11:16:46;;;;;;;6.47;2.55;;;20.80;60.40;;;;;;5026752;28;20044;-65
2021/08/25 11:19:29;;;;;;;6.07;2.58;;;20.80;60.70;;;;;;5026493;28;20357;-63
2021/08/25 11:21:57;;;;;;;6.90;2.70;;;20.80;60.80;;;;;;5025874;28;20574;-65
2021/08/25 11:24:23;;;;;;;6.90;2.50;;;20.80;60.70;;;;;;5026147;28;20332;-64
2021/08/25 11:26:49;;;;;;;9.13;2.50;;;20.90;60.90;;;;;;5026455;28;20401;-66
2021/08/25 11:29:20;;;;;;;5.72;2.50;;;20.90;61.00;;;;;;5026221;28;20040;-66
2021/08/25 11:31:47;;;;;;;6.40;2.70;;;20.90;60.80;;;;;;5025981;28;20494;-67
2021/08/25 11:34:13;;;;;;;6.38;2.40;;;21.00;60.80;;;;;;5041488;28;20051;-69
2021/08/25 11:36:53;;;;;;;7.18;2.78;;;21.20;61.20;;;;;;5039920;28;20083;-68
2021/08/25 11:39:18;;;;;;;8.55;2.50;;;21.10;61.10;;;;;;5034676;28;20108;-66
2021/08/25 11:41:47;;;;;;;5.85;2.25;;;21.20;60.90;;;;;;5030323;28;20033;-64
2021/08/25 11:44:13;;;;;;;6.97;2.90;;;21.20;60.50;;;;;;5041748;28;20024;-65
2021/08/25 11:46:39;;;;;;;10.55;3.10;;;21.20;61.00;;;;;;5034791;28;20030;-65
2021/08/25 11:49:04;;;;;;;7.53;2.63;;;21.30;62.20;;;;;;5030681;28;20572;-71
2021/08/25 11:51:31;;;;;;;7.32;3.15;;;21.30;61.10;;;;;;5038261;28;20056;-69
2021/08/25 11:53:57;;;;;;;10.00;2.78;;;21.30;61.30;;;;;;5047153;28;20627;-70
2021/08/25 11:56:22;;;;;;;9.35;3.13;;;21.50;61.30;;;;;;5033463;28;20037;-69
2021/08/25 11:58:54;;;;;;;8.48;2.80;;;21.40;62.40;;;;;;5034392;28;20037;-66
2021/08/25 12:01:24;;;;;;;14.65;3.08;;;21.40;61.70;;;;;;5047578;28;20029;-65
2021/08/25 12:03:50;;;;;;;6.18;2.80;;;21.50;62.00;;;;;;5035170;28;20082;-65
2021/08/25 12:06:19;;;;;;;7.78;2.63;;;21.50;62.40;;;;;;5040838;28;20394;-64
2021/08/25 12:08:49;;;;;;;7.13;2.75;;;21.60;62.20;;;;;;5045888;28;20378;-65
2021/08/25 12:11:18;;;;;;;6.60;2.67;;;21.50;61.50;;;;;;5036845;28;20448;-62
2021/08/25 12:13:57;;;;;;;10.57;3.50;;;21.40;61.00;;;;;;5034779;28;20179;-65
2021/08/25 12:16:30;;;;;;;6.65;2.55;;;21.50;61.80;;;;;;5048367;28;20040;-63
2021/08/25 12:18:58;;;;;;;9.40;2.83;;;21.40;60.80;;;;;;5035044;28;20025;-68
2021/08/25 12:21:29;;;;;;;8.68;2.67;;;21.40;61.80;;;;;;5031936;28;20065;-65
2021/08/25 12:23:59;;;;;;;8.38;2.72;;;21.50;61.20;;;;;;5026148;28;20117;-63
2021/08/25 12:26:28;;;;;;;9.55;2.85;;;21.50;60.90;;;;;;5038272;28;20033;-65
2021/08/25 12:28:54;;;;;;;7.55;3.17;;;21.60;61.60;;;;;;5041560;28;20057;-64
2021/08/25 12:31:24;;;;;;;6.85;3.00;;;21.50;60.90;;;;;;5031853;28;20041;-66
2021/08/25 12:33:54;;;;;;;7.15;3.25;;;21.30;60.80;;;;;;5041228;28;20474;-66
2021/08/25 12:36:28;;;;;;;8.35;3.08;;;21.30;60.60;;;;;;5058101;28;20075;-64
2021/08/25 12:39:10;;;;;;;7.75;3.25;;;21.30;60.90;;;;;;5042048;28;20383;-65
2021/08/25 12:41:40;;;;;;;7.15;3.33;;;21.20;61.30;;;;;;5042320;28;20112;-72
2021/08/25 12:44:07;;;;;;;9.45;3.42;;;21.30;61.30;;;;;;5033262;28;20017;-66
2021/08/25 12:46:55;;;;;;;7.85;2.88;;;21.60;61.50;;;;;;5040379;28;20044;-67
2021/08/25 12:49:23;;;;;;;8.00;3.20;;;21.40;61.40;;;;;;5043481;28;20724;-65